createdAt,value
2017-12-09T00:01:27.033Z,100256.39
2017-12-09T00:03:53.465Z,100260.80
2017-12-09T00:06:19.729Z,100259.45
2017-12-09T00:08:45.923Z,100256.08
2017-12-09T00:11:12.122Z,100253.02
2017-12-09T00:13:38.378Z,100241.70
2017-12-09T00:16:04.571Z,100233.80
2017-12-09T00:18:30.773Z,100231.14
2017-12-09T00:20:57.038Z,100233.76
2017-12-09T00:23:23.473Z,100225.50
2017-12-09T00:25:49.709Z,100224.66
2017-12-09T00:28:15.978Z,100215.89
2017-12-09T00:30:42.149Z,100213.30
2017-12-09T00:33:08.337Z,100210.21
2017-12-09T00:35:34.799Z,100200.69
2017-12-09T00:38:00.974Z,100211.16
2017-12-09T00:40:27.187Z,100206.32
2017-12-09T00:42:53.434Z,100199.38
2017-12-09T00:45:19.637Z,100195.84
2017-12-09T00:47:45.817Z,100194.05
2017-12-09T00:50:12.057Z,100191.12
2017-12-09T00:52:38.237Z,100187.10
2017-12-09T00:55:04.686Z,100194.13
2017-12-09T00:57:30.935Z,100204.18
2017-12-09T00:59:57.095Z,100200.68
2017-12-09T01:02:23.281Z,100210.73
2017-12-09T01:04:49.530Z,100214.19
2017-12-09T01:07:15.951Z,100215.09
2017-12-09T01:09:42.464Z,100211.22
2017-12-09T01:12:08.722Z,100222.17
2017-12-09T01:14:34.903Z,100218.69
2017-12-09T01:17:13.273Z,100219.12
2017-12-09T01:19:39.524Z,100215.15
2017-12-09T01:22:05.718Z,100215.14
2017-12-09T01:24:31.899Z,100209.94
2017-12-09T01:26:58.308Z,100196.45
2017-12-09T01:29:24.499Z,100198.94
2017-12-09T01:31:50.690Z,100202.39
2017-12-09T01:34:16.916Z,100200.73
2017-12-09T01:36:43.109Z,100188.45
2017-12-09T01:39:09.363Z,100191.12
2017-12-09T01:41:35.589Z,100193.22
2017-12-09T01:44:01.790Z,100194.44
2017-12-09T01:46:28.209Z,100181.29
2017-12-09T01:48:54.456Z,100183.95
2017-12-09T01:51:20.781Z,100172.59
2017-12-09T01:53:46.984Z,100177.83
2017-12-09T01:56:13.232Z,100175.48
2017-12-09T01:58:39.755Z,100176.22
2017-12-09T02:01:05.952Z,100178.48
2017-12-09T02:03:32.196Z,100175.48
2017-12-09T02:05:58.373Z,100174.16
2017-12-09T02:08:24.578Z,100165.03
2017-12-09T02:10:50.820Z,100165.95
2017-12-09T02:13:17.069Z,100162.84
2017-12-09T02:15:43.272Z,100162.89
2017-12-09T02:18:09.517Z,100160.71
2017-12-09T02:20:35.734Z,100157.17
2017-12-09T02:23:01.925Z,100151.05
2017-12-09T02:25:28.176Z,100150.53
2017-12-09T02:27:54.496Z,100151.05
2017-12-09T02:30:20.713Z,100138.77
2017-12-09T02:32:46.979Z,100130.03
2017-12-09T02:35:13.173Z,100136.16
2017-12-09T02:37:39.384Z,100143.09
2017-12-09T02:40:05.658Z,100143.09
2017-12-09T02:42:31.856Z,100141.78
2017-12-09T02:44:58.302Z,100147.82
2017-12-09T02:47:24.880Z,100150.09
2017-12-09T02:49:51.105Z,100143.19
2017-12-09T02:52:18.255Z,100142.31
2017-12-09T02:54:44.531Z,100135.91
2017-12-09T02:57:10.736Z,100133.23
2017-12-09T02:59:36.920Z,100125.41
2017-12-09T03:02:03.156Z,100133.67
2017-12-09T03:04:29.372Z,100125.89
2017-12-09T03:06:55.583Z,100130.27
2017-12-09T03:09:21.828Z,100128.47
2017-12-09T03:11:48.016Z,100115.84
2017-12-09T03:14:14.241Z,100114.53
2017-12-09T03:16:40.505Z,100114.53
2017-12-09T03:19:06.949Z,100109.69
2017-12-09T03:21:33.144Z,100110.55
2017-12-09T03:23:59.405Z,100115.49
2017-12-09T03:26:25.585Z,100124.28
2017-12-09T03:28:51.807Z,100129.48
2017-12-09T03:31:18.068Z,100125.14
2017-12-09T03:33:44.289Z,100125.55
2017-12-09T03:36:10.481Z,100118.16
2017-12-09T03:38:36.715Z,100118.03
2017-12-09T03:41:03.148Z,100123.80
2017-12-09T03:43:30.125Z,100122.62
2017-12-09T03:45:56.418Z,100119.56
2017-12-09T03:48:22.618Z,100113.80
2017-12-09T03:50:48.807Z,100110.30
2017-12-09T03:53:15.056Z,100107.28
2017-12-09T03:55:41.240Z,100114.27
2017-12-09T03:58:07.489Z,100118.59
2017-12-09T04:00:33.744Z,100129.09
2017-12-09T04:02:59.943Z,100128.61
2017-12-09T04:05:26.140Z,100143.45
2017-12-09T04:07:52.408Z,100133.37
2017-12-09T04:10:18.620Z,100143.84
2017-12-09T04:12:44.812Z,100146.13
2017-12-09T04:15:11.107Z,100147.91
2017-12-09T04:17:37.298Z,100140.92
2017-12-09T04:20:03.501Z,100139.61
2017-12-09T04:22:29.744Z,100137.47
2017-12-09T04:24:55.943Z,100139.13
2017-12-09T04:27:22.170Z,100142.63
2017-12-09T04:29:48.437Z,100136.91
2017-12-09T04:32:14.628Z,100139.92
2017-12-09T04:34:40.804Z,100141.23
2017-12-09T04:37:07.034Z,100132.45
2017-12-09T04:39:33.222Z,100130.31
2017-12-09T04:41:59.408Z,100134.33
2017-12-09T04:44:25.669Z,100139.13
2017-12-09T04:46:51.871Z,100129.13
2017-12-09T04:49:18.305Z,100119.52
2017-12-09T04:51:44.528Z,100126.41
2017-12-09T04:54:10.735Z,100128.30
2017-12-09T04:56:36.927Z,100131.75
2017-12-09T04:59:03.164Z,100134.24
2017-12-09T05:01:29.344Z,100138.66
2017-12-09T05:03:55.522Z,100148.70
2017-12-09T05:06:21.770Z,100154.98
2017-12-09T05:08:47.962Z,100156.65
2017-12-09T05:11:14.152Z,100169.63
2017-12-09T05:13:40.417Z,100182.73
2017-12-09T05:16:06.614Z,100172.16
2017-12-09T05:18:32.792Z,100169.93
2017-12-09T05:20:59.027Z,100164.98
2017-12-09T05:23:25.229Z,100177.62
2017-12-09T05:25:51.658Z,100171.98
2017-12-09T05:28:17.909Z,100189.41
2017-12-09T05:30:44.152Z,100217.29
2017-12-09T05:33:10.648Z,100230.01
2017-12-09T05:35:36.885Z,100215.11
2017-12-09T05:38:03.074Z,100206.80
2017-12-09T05:40:29.265Z,100197.16
2017-12-09T05:42:55.523Z,100193.73
2017-12-09T05:45:21.960Z,100196.45
2017-12-09T05:47:48.153Z,100185.08
2017-12-09T05:50:14.420Z,100188.06
2017-12-09T05:52:40.619Z,100190.72
2017-12-09T05:55:06.830Z,100199.37
2017-12-09T05:57:33.303Z,100179.36
2017-12-09T05:59:59.741Z,100184.13
2017-12-09T06:02:25.931Z,100182.34
2017-12-09T06:04:52.436Z,100178.84
2017-12-09T06:07:18.873Z,100181.89
2017-12-09T06:09:45.319Z,100187.05
2017-12-09T06:12:11.572Z,100182.46
2017-12-09T06:14:37.761Z,100182.99
2017-12-09T06:17:03.944Z,100178.92
2017-12-09T06:19:30.185Z,100178.41
2017-12-09T06:21:56.360Z,100177.09
2017-12-09T06:24:22.569Z,100184.47
2017-12-09T06:26:48.841Z,100187.09
2017-12-09T06:29:15.030Z,100198.94
2017-12-09T06:31:41.241Z,100189.33
2017-12-09T06:34:07.488Z,100190.16
2017-12-09T06:36:33.700Z,100184.05
2017-12-09T06:38:59.933Z,100193.30
2017-12-09T06:41:26.271Z,100200.69
2017-12-09T06:43:52.460Z,100207.67
2017-12-09T06:46:18.697Z,100206.45
2017-12-09T06:48:44.887Z,100213.05
2017-12-09T06:51:11.275Z,100217.03
2017-12-09T06:53:37.521Z,100214.80
2017-12-09T06:56:03.987Z,100222.27
2017-12-09T06:58:30.213Z,100245.98
2017-12-09T07:00:56.441Z,100269.59
2017-12-09T07:03:22.630Z,100282.34
2017-12-09T07:05:48.812Z,100263.23
2017-12-09T07:08:15.074Z,100235.28
2017-12-09T07:10:41.256Z,100238.66
2017-12-09T07:13:07.740Z,100238.00
2017-12-09T07:15:33.988Z,100246.26
2017-12-09T07:18:00.164Z,100241.48
2017-12-09T07:20:26.332Z,100251.55
2017-12-09T07:22:52.556Z,100266.84
2017-12-09T07:25:18.756Z,100284.70
2017-12-09T07:27:44.951Z,100285.06
2017-12-09T07:30:11.200Z,100291.62
2017-12-09T07:32:37.423Z,100295.07
2017-12-09T07:35:03.620Z,100277.67
2017-12-09T07:37:29.861Z,100271.88
2017-12-09T07:39:56.184Z,100274.75
2017-12-09T07:42:22.361Z,100279.69
2017-12-09T07:44:48.575Z,100268.84
2017-12-09T07:47:14.849Z,100273.30
2017-12-09T07:49:41.063Z,100275.45
2017-12-09T07:52:07.235Z,100277.59
2017-12-09T07:54:33.481Z,100279.69
2017-12-09T07:56:59.665Z,100281.75
2017-12-09T07:59:25.835Z,100275.06
2017-12-09T08:01:52.096Z,100272.40
2017-12-09T08:04:18.341Z,100273.80
2017-12-09T08:06:44.541Z,100289.09
2017-12-09T08:09:11.026Z,100296.61
2017-12-09T08:11:37.284Z,100283.97
2017-12-09T08:14:03.457Z,100286.86
2017-12-09T08:16:29.706Z,100281.01
2017-12-09T08:18:55.894Z,100287.09
2017-12-09T08:21:22.103Z,100288.00
2017-12-09T08:23:48.366Z,100294.08
2017-12-09T08:26:14.572Z,100289.72
2017-12-09T08:28:40.749Z,100296.27
2017-12-09T08:31:07.096Z,100302.04
2017-12-09T08:33:33.543Z,100304.19
2017-12-09T08:35:59.723Z,100309.73
2017-12-09T08:38:25.969Z,100310.47
2017-12-09T08:40:52.185Z,100314.28
2017-12-09T08:43:18.435Z,100316.42
2017-12-09T08:45:44.721Z,100314.41
2017-12-09T08:48:10.931Z,100313.14
2017-12-09T08:50:37.141Z,100318.44
2017-12-09T08:53:03.380Z,100329.84
2017-12-09T08:55:29.582Z,100338.05
2017-12-09T08:57:55.809Z,100354.15
2017-12-09T09:00:22.086Z,100367.18
2017-12-09T09:02:48.288Z,100367.66
2017-12-09T09:05:14.464Z,100372.46
2017-12-09T09:07:40.731Z,100370.80
2017-12-09T09:10:06.946Z,100370.36
2017-12-09T09:12:33.117Z,100358.92
2017-12-09T09:14:59.365Z,100341.95
2017-12-09T09:17:25.548Z,100345.97
2017-12-09T09:19:51.744Z,100349.91
2017-12-09T09:22:18.000Z,100357.65
2017-12-09T09:24:44.190Z,100355.77
2017-12-09T09:27:10.385Z,100360.02
2017-12-09T09:29:36.633Z,100368.23
2017-12-09T09:32:03.121Z,100363.30
2017-12-09T09:34:29.404Z,100361.07
2017-12-09T09:36:55.599Z,100365.40
2017-12-09T09:39:21.871Z,100370.52
2017-12-09T09:41:48.063Z,100377.52
2017-12-09T09:44:14.298Z,100377.88
2017-12-09T09:46:40.538Z,100383.59
2017-12-09T09:49:06.729Z,100385.83
2017-12-09T09:51:32.912Z,100380.49
2017-12-09T09:53:59.177Z,100381.81
2017-12-09T09:56:25.604Z,100389.11
2017-12-09T09:58:51.819Z,100393.00
2017-12-09T10:01:18.064Z,100392.83
2017-12-09T10:03:44.261Z,100394.14
2017-12-09T10:06:10.471Z,100388.49
2017-12-09T10:08:36.735Z,100384.20
2017-12-09T10:11:02.930Z,100383.87
2017-12-09T10:13:29.136Z,100386.13
2017-12-09T10:15:55.389Z,100389.89
2017-12-09T10:18:21.592Z,100381.86
2017-12-09T10:20:47.793Z,100379.33
2017-12-09T10:23:14.023Z,100385.09
2017-12-09T10:25:40.209Z,100383.48
2017-12-09T10:28:06.493Z,100395.16
2017-12-09T10:30:32.744Z,100391.03
2017-12-09T10:32:59.025Z,100388.41
2017-12-09T10:35:25.210Z,100388.19
2017-12-09T10:37:51.466Z,100393.48
2017-12-09T10:40:17.922Z,100393.40
2017-12-09T10:42:44.124Z,100401.31
2017-12-09T10:45:10.364Z,100397.78
2017-12-09T10:47:36.564Z,100389.98
2017-12-09T10:50:02.770Z,100390.08
2017-12-09T10:52:29.019Z,100380.58
2017-12-09T10:54:55.204Z,100375.33
2017-12-09T10:57:21.416Z,100384.52
2017-12-09T10:59:47.706Z,100399.03
2017-12-09T11:02:13.908Z,100401.65
2017-12-09T11:04:40.136Z,100392.39
2017-12-09T11:07:06.374Z,100395.48
2017-12-09T11:09:32.776Z,100400.25
2017-12-09T11:11:58.993Z,100403.31
2017-12-09T11:14:25.244Z,100405.07
2017-12-09T11:16:51.449Z,100405.86
2017-12-09T11:19:17.656Z,100406.66
2017-12-09T11:21:43.911Z,100399.13
2017-12-09T11:24:10.096Z,100405.20
2017-12-09T11:26:36.290Z,100404.33
2017-12-09T11:29:02.559Z,100405.20
2017-12-09T11:31:28.776Z,100402.63
2017-12-09T11:33:55.285Z,100403.55
2017-12-09T11:36:21.540Z,100406.73
2017-12-09T11:38:47.749Z,100400.53
2017-12-09T11:41:13.943Z,100394.44
2017-12-09T11:43:40.212Z,100400.56
2017-12-09T11:46:06.425Z,100400.09
2017-12-09T11:48:32.632Z,100403.94
2017-12-09T11:50:58.864Z,100401.70
2017-12-09T11:53:25.068Z,100405.20
2017-12-09T11:55:51.285Z,100413.82
2017-12-09T11:58:17.569Z,100412.86
2017-12-09T12:00:44.008Z,100411.20
2017-12-09T12:03:10.226Z,100413.07
2017-12-09T12:05:36.464Z,100413.65
2017-12-09T12:08:02.693Z,100412.25
2017-12-09T12:10:28.900Z,100414.91
2017-12-09T12:12:55.440Z,100406.61
2017-12-09T12:15:21.902Z,100411.98
2017-12-09T12:17:48.081Z,100408.52
2017-12-09T12:20:14.585Z,100397.07
2017-12-09T12:22:40.786Z,100395.75
2017-12-09T12:25:06.973Z,100401.41
2017-12-09T12:27:33.236Z,100401.12
2017-12-09T12:29:59.447Z,100414.77
2017-12-09T12:32:25.649Z,100423.56
2017-12-09T12:34:52.020Z,100420.89
2017-12-09T12:37:18.545Z,100431.70
2017-12-09T12:39:44.778Z,100433.06
2017-12-09T12:42:11.044Z,100420.25
2017-12-09T12:44:37.241Z,100421.39
2017-12-09T12:47:03.487Z,100417.37
2017-12-09T12:49:29.740Z,100412.82
2017-12-09T12:51:55.949Z,100414.39
2017-12-09T12:54:22.394Z,100413.52
2017-12-09T12:56:48.646Z,100409.71
2017-12-09T12:59:15.080Z,100410.28
2017-12-09T13:01:41.285Z,100408.86
2017-12-09T13:04:07.532Z,100414.47
2017-12-09T13:06:33.724Z,100413.28
2017-12-09T13:08:59.960Z,100406.94
2017-12-09T13:11:26.199Z,100406.50
2017-12-09T13:13:52.396Z,100406.28
2017-12-09T13:16:18.611Z,100403.89
2017-12-09T13:18:44.864Z,100403.37
2017-12-09T13:21:11.073Z,100397.34
2017-12-09T13:23:37.257Z,100396.06
2017-12-09T13:26:03.528Z,100395.32
2017-12-09T13:28:29.742Z,100397.28
2017-12-09T13:30:55.964Z,100416.62
2017-12-09T13:33:22.200Z,100432.94
2017-12-09T13:35:48.455Z,100431.15
2017-12-09T13:38:14.673Z,100433.37
2017-12-09T13:40:40.931Z,100429.08
2017-12-09T13:43:07.133Z,100418.63
2017-12-09T13:45:33.337Z,100415.22
2017-12-09T13:47:59.553Z,100408.61
2017-12-09T13:50:25.744Z,100402.41
2017-12-09T13:52:51.999Z,100403.31
2017-12-09T13:55:18.217Z,100407.73
2017-12-09T13:57:44.641Z,100409.97
2017-12-09T14:00:10.890Z,100424.41
2017-12-09T14:02:37.084Z,100426.28
2017-12-09T14:05:03.318Z,100428.67
2017-12-09T14:07:29.529Z,100431.34
2017-12-09T14:09:55.745Z,100433.84
2017-12-09T14:12:22.216Z,100425.70
2017-12-09T14:14:48.411Z,100442.80
2017-12-09T14:17:14.857Z,100441.09
2017-12-09T14:19:41.034Z,100444.07
2017-12-09T14:22:07.282Z,100433.53
2017-12-09T14:24:33.488Z,100422.08
2017-12-09T14:26:59.694Z,100414.56
2017-12-09T14:29:25.928Z,100419.81
2017-12-09T14:31:52.084Z,100417.58
2017-12-09T14:34:18.301Z,100409.84
2017-12-09T14:36:44.590Z,100403.32
2017-12-09T14:39:10.782Z,100416.95
2017-12-09T14:41:36.959Z,100434.97
2017-12-09T14:44:03.195Z,100428.77
2017-12-09T14:46:29.376Z,100414.86
2017-12-09T14:48:55.599Z,100417.52
2017-12-09T14:51:21.857Z,100423.20
2017-12-09T14:53:48.096Z,100429.45
2017-12-09T14:56:14.293Z,100433.52
2017-12-09T14:58:40.539Z,100427.75
2017-12-09T15:01:06.749Z,100426.39
2017-12-09T15:03:32.983Z,100428.18
2017-12-09T15:05:59.236Z,100422.53
2017-12-09T15:08:25.437Z,100416.81
2017-12-09T15:10:51.632Z,100417.60
2017-12-09T15:13:17.864Z,100414.98
2017-12-09T15:15:44.049Z,100420.35
2017-12-09T15:18:10.506Z,100420.39
2017-12-09T15:20:36.770Z,100423.89
2017-12-09T15:23:02.948Z,100424.41
2017-12-09T15:25:29.146Z,100425.28
2017-12-09T15:27:55.385Z,100422.66
2017-12-09T15:30:21.589Z,100421.47
2017-12-09T15:32:47.771Z,100424.05
2017-12-09T15:35:14.001Z,100420.20
2017-12-09T15:37:40.277Z,100419.28
2017-12-09T15:40:06.780Z,100414.91
2017-12-09T15:42:33.280Z,100413.52
2017-12-09T15:44:59.703Z,100410.11
2017-12-09T15:47:25.897Z,100403.94
2017-12-09T15:49:52.157Z,100398.22
2017-12-09T15:52:18.368Z,100396.47
2017-12-09T15:54:44.556Z,100396.52
2017-12-09T15:57:10.792Z,100385.63
2017-12-09T15:59:36.997Z,100387.30
2017-12-09T16:02:03.488Z,100380.50
2017-12-09T16:04:29.720Z,100380.45
2017-12-09T16:06:56.152Z,100379.55
2017-12-09T16:09:22.645Z,100378.75
2017-12-09T16:11:48.846Z,100373.59
2017-12-09T16:14:15.053Z,100384.52
2017-12-09T16:16:41.292Z,100380.55
2017-12-09T16:19:07.499Z,100380.98
2017-12-09T16:21:33.741Z,100383.72
2017-12-09T16:24:00.017Z,100378.92
2017-12-09T16:26:26.445Z,100374.11
2017-12-09T16:28:52.662Z,100384.12
2017-12-09T16:31:18.923Z,100378.56
2017-12-09T16:33:45.128Z,100383.33
2017-12-09T16:36:11.332Z,100372.80
2017-12-09T16:38:37.611Z,100372.84
2017-12-09T16:41:03.814Z,100371.61
2017-12-09T16:43:30.017Z,100373.32
2017-12-09T16:45:56.272Z,100377.33
2017-12-09T16:48:22.516Z,100376.54
2017-12-09T16:50:48.716Z,100375.63
2017-12-09T16:53:14.976Z,100381.34
2017-12-09T16:55:41.404Z,100369.11
2017-12-09T16:58:07.611Z,100374.80
2017-12-09T17:00:33.874Z,100364.73
2017-12-09T17:03:00.076Z,100369.55
2017-12-09T17:05:26.271Z,100373.56
2017-12-09T17:07:52.737Z,100364.83
2017-12-09T17:10:19.154Z,100366.92
2017-12-09T17:12:45.371Z,100367.36
2017-12-09T17:15:11.842Z,100370.45
2017-12-09T17:17:38.015Z,100367.36
2017-12-09T17:20:04.190Z,100369.98
2017-12-09T17:22:30.454Z,100366.92
2017-12-09T17:24:56.657Z,100372.61
2017-12-09T17:27:23.099Z,100372.73
2017-12-09T17:29:49.579Z,100371.02
2017-12-09T17:32:16.140Z,100371.50
2017-12-09T17:34:42.573Z,100378.09
2017-12-09T17:37:08.820Z,100368.44
2017-12-09T17:39:35.040Z,100368.09
2017-12-09T17:42:01.278Z,100373.38
2017-12-09T17:44:27.536Z,100369.83
2017-12-09T17:46:53.750Z,100370.66
2017-12-09T17:49:19.964Z,100364.15
2017-12-09T17:51:46.253Z,100358.08
2017-12-09T17:54:12.463Z,100362.87
2017-12-09T17:56:38.866Z,100354.19
2017-12-09T17:59:05.137Z,100355.53
2017-12-09T18:01:31.335Z,100349.86
2017-12-09T18:03:57.553Z,100349.02
2017-12-09T18:06:24.159Z,100342.95
2017-12-09T18:08:50.688Z,100342.59
2017-12-09T18:11:16.908Z,100336.91
2017-12-09T18:13:43.149Z,100346.09
2017-12-09T18:18:42.042Z,100341.72
2017-12-09T18:21:08.307Z,100345.16
2017-12-09T18:23:34.516Z,100339.92
2017-12-09T18:26:00.710Z,100344.70
2017-12-09T18:28:26.964Z,100347.72
2017-12-09T18:30:53.396Z,100348.66
2017-12-09T18:33:19.594Z,100349.10
2017-12-09T18:35:45.819Z,100347.35
2017-12-09T18:38:12.007Z,100353.91
2017-12-09T18:40:38.231Z,100354.34
2017-12-09T18:43:04.497Z,100344.77
2017-12-09T18:45:30.708Z,100347.39
2017-12-09T18:47:56.911Z,100348.70
2017-12-09T18:50:23.254Z,100354.42
2017-12-09T18:52:49.452Z,100361.05
2017-12-09T18:55:15.679Z,100365.42
2017-12-09T18:57:41.909Z,100372.41
2017-12-09T19:00:08.087Z,100366.78
2017-12-09T19:05:06.108Z,100356.38
2017-12-09T19:07:32.300Z,100358.48
2017-12-09T19:09:58.488Z,100354.23
2017-12-09T19:12:24.740Z,100361.38
2017-12-09T19:14:51.018Z,100360.54
2017-12-09T19:17:17.155Z,100357.48
2017-12-09T19:19:43.410Z,100356.45
2017-12-09T19:22:09.620Z,100343.38
2017-12-09T19:24:35.835Z,100348.15
2017-12-09T19:27:02.175Z,100342.91
2017-12-09T19:29:28.593Z,100343.78
2017-12-09T19:31:54.765Z,100341.20
2017-12-09T19:34:21.061Z,100338.58
2017-12-09T19:36:47.261Z,100333.77
2017-12-09T19:39:13.592Z,100325.91
2017-12-09T19:41:39.833Z,100319.41
2017-12-09T19:44:06.017Z,100325.55
2017-12-09T19:46:32.225Z,100320.28
2017-12-09T19:48:58.704Z,100317.73
2017-12-09T19:51:24.890Z,100311.22
2017-12-09T19:53:51.084Z,100308.13
2017-12-09T19:56:17.326Z,100298.98
2017-12-09T19:58:43.564Z,100298.03
2017-12-09T20:01:09.800Z,100301.97
2017-12-09T20:03:36.051Z,100297.95
2017-12-09T20:06:02.248Z,100304.07
2017-12-09T20:08:28.443Z,100303.64
2017-12-09T20:10:54.711Z,100299.70
2017-12-09T20:13:20.915Z,100302.45
2017-12-09T20:15:47.098Z,100306.06
2017-12-09T20:18:13.357Z,100295.06
2017-12-09T20:20:39.567Z,100301.26
2017-12-09T20:23:05.740Z,100306.02
2017-12-09T20:25:31.991Z,100313.02
2017-12-09T20:27:58.192Z,100297.77
2017-12-09T20:30:24.397Z,100296.02
2017-12-09T20:32:50.659Z,100308.64
2017-12-09T20:35:16.868Z,100303.36
2017-12-09T20:37:43.085Z,100303.76
2017-12-09T20:40:09.604Z,100294.15
2017-12-09T20:42:35.807Z,100295.41
2017-12-09T20:45:02.012Z,100291.45
2017-12-09T20:47:28.265Z,100292.41
2017-12-09T20:49:54.465Z,100292.01
2017-12-09T20:52:20.659Z,100292.84
2017-12-09T20:54:46.921Z,100290.61
2017-12-09T20:57:13.109Z,100289.34
2017-12-09T20:59:39.309Z,100300.30
2017-12-09T21:02:05.790Z,100295.06
2017-12-09T21:04:31.985Z,100301.61
2017-12-09T21:06:58.162Z,100285.02
2017-12-09T21:09:24.659Z,100285.41
2017-12-09T21:11:50.853Z,100284.66
2017-12-09T21:14:17.035Z,100273.78
2017-12-09T21:16:43.272Z,100277.72
2017-12-09T21:19:09.472Z,100270.77
2017-12-09T21:21:35.655Z,100261.20
2017-12-09T21:24:01.897Z,100259.84
2017-12-09T21:26:28.086Z,100264.26
2017-12-09T21:28:54.333Z,100258.59
2017-12-09T21:31:20.532Z,100257.19
2017-12-09T21:33:46.717Z,100257.70
2017-12-09T21:36:12.932Z,100247.22
2017-12-09T21:38:39.100Z,100245.04
2017-12-09T21:41:05.414Z,100238.89
2017-12-09T21:43:31.632Z,100238.05
2017-12-09T21:45:57.816Z,100237.14
2017-12-09T21:48:24.012Z,100235.39
2017-12-09T21:50:50.283Z,100244.56
2017-12-09T21:53:16.688Z,100243.29
2017-12-09T21:55:42.893Z,100242.81
2017-12-09T21:58:09.153Z,100237.88
2017-12-09T22:00:35.331Z,100231.73
2017-12-09T22:03:01.597Z,100218.70
2017-12-09T22:05:27.832Z,100218.27
2017-12-09T22:07:54.022Z,100210.41
2017-12-09T22:10:20.224Z,100213.86
2017-12-09T22:12:46.571Z,100212.94
2017-12-09T22:15:12.779Z,100212.86
2017-12-09T22:17:38.973Z,100209.02
2017-12-09T22:20:05.244Z,100212.08
2017-12-09T22:22:31.419Z,100202.91
2017-12-09T22:24:57.620Z,100199.89
2017-12-09T22:27:23.863Z,100196.44
2017-12-09T22:29:50.064Z,100193.42
2017-12-09T22:32:16.270Z,100200.76
2017-12-09T22:34:42.509Z,100200.36
2017-12-09T22:37:08.711Z,100192.63
2017-12-09T22:39:34.926Z,100179.11
2017-12-09T22:42:01.211Z,100179.19
2017-12-09T22:44:27.400Z,100180.15
2017-12-09T22:46:53.579Z,100172.72
2017-12-09T22:49:19.827Z,100173.16
2017-12-09T22:51:46.098Z,100168.88
2017-12-09T22:54:12.289Z,100163.68
2017-12-09T22:56:38.556Z,100164.12
2017-12-09T22:59:04.737Z,100146.65
2017-12-09T23:01:30.931Z,100150.18
2017-12-09T23:03:57.180Z,100158.52
2017-12-09T23:06:23.392Z,100148.96
2017-12-09T23:08:49.572Z,100154.20
2017-12-09T23:11:15.823Z,100151.49
2017-12-09T23:13:42.016Z,100141.94
2017-12-09T23:16:08.216Z,100149.79
2017-12-09T23:18:34.457Z,100147.22
2017-12-09T23:21:00.655Z,100139.00
2017-12-09T23:23:26.870Z,100140.22
2017-12-09T23:25:53.159Z,100137.44
2017-12-09T23:28:19.419Z,100132.59
2017-12-09T23:30:45.607Z,100134.78
2017-12-09T23:33:11.859Z,100130.45
2017-12-09T23:35:38.268Z,100135.86
2017-12-09T23:38:04.461Z,100133.72
2017-12-09T23:40:30.709Z,100128.00
2017-12-09T23:42:57.210Z,100128.74
2017-12-09T23:45:23.384Z,100119.22
2017-12-09T23:47:49.674Z,100121.41
2017-12-09T23:50:15.867Z,100126.60
2017-12-09T23:52:42.075Z,100108.14
2017-12-09T23:55:08.316Z,100103.86
2017-12-09T23:57:34.479Z,100099.58
